sensor_id;sensor_type;location;lat;lon;timestamp;P1;durP1;ratioP1;P2;durP2;ratioP2
69822;SDS011;57119;52.516;13.508;2024-01-11T00:00:13;17.40;;;6.40;;
69822;SDS011;57119;52.516;13.508;2024-01-11T00:02:38;16.20;;;6.05;;
69822;SDS011;57119;52.516;13.508;2024-01-11T00:05:04;16.10;;;5.63;;
69822;SDS011;57119;52.516;13.508;2024-01-11T00:07:29;16.77;;;5.07;;
69822;SDS011;57119;52.516;13.508;2024-01-11T00:09:55;15.47;;;5.47;;
69822;SDS011;57119;52.516;13.508;2024-01-11T00:12:20;15.73;;;5.00;;
69822;SDS011;57119;52.516;13.508;2024-01-11T00:14:45;14.57;;;4.70;;
69822;SDS011;57119;52.516;13.508;2024-01-11T00:17:11;14.40;;;5.53;;
69822;SDS011;57119;52.516;13.508;2024-01-11T00:19:36;14.17;;;4.33;;
69822;SDS011;57119;52.516;13.508;2024-01-11T00:22:02;15.52;;;4.68;;
69822;SDS011;57119;52.516;13.508;2024-01-11T00:24:27;16.98;;;4.55;;
69822;SDS011;57119;52.516;13.508;2024-01-11T00:26:52;15.30;;;4.97;;
69822;SDS011;57119;52.516;13.508;2024-01-11T00:29:18;14.03;;;5.13;;
69822;SDS011;57119;52.516;13.508;2024-01-11T00:31:43;20.67;;;6.57;;
69822;SDS011;57119;52.516;13.508;2024-01-11T00:34:09;20.63;;;6.50;;
69822;SDS011;57119;52.516;13.508;2024-01-11T00:36:34;23.87;;;6.80;;
69822;SDS011;57119;52.516;13.508;2024-01-11T00:39:00;19.70;;;6.15;;
69822;SDS011;57119;52.516;13.508;2024-01-11T00:41:25;15.47;;;5.10;;
69822;SDS011;57119;52.516;13.508;2024-01-11T00:43:50;16.80;;;5.83;;
69822;SDS011;57119;52.516;13.508;2024-01-11T00:46:16;16.33;;;5.73;;
69822;SDS011;57119;52.516;13.508;2024-01-11T00:48:41;19.92;;;5.80;;
69822;SDS011;57119;52.516;13.508;2024-01-11T00:51:07;19.37;;;5.80;;
69822;SDS011;57119;52.516;13.508;2024-01-11T00:53:32;21.33;;;5.83;;
69822;SDS011;57119;52.516;13.508;2024-01-11T00:55:58;16.80;;;5.80;;
69822;SDS011;57119;52.516;13.508;2024-01-11T00:58:24;17.03;;;5.20;;
69822;SDS011;57119;52.516;13.508;2024-01-11T01:00:49;20.57;;;6.37;;
69822;SDS011;57119;52.516;13.508;2024-01-11T01:03:14;21.35;;;5.03;;
69822;SDS011;57119;52.516;13.508;2024-01-11T01:05:41;15.65;;;5.30;;
69822;SDS011;57119;52.516;13.508;2024-01-11T01:08:07;15.30;;;3.97;;
69822;SDS011;57119;52.516;13.508;2024-01-11T01:10:32;15.53;;;4.23;;
69822;SDS011;57119;52.516;13.508;2024-01-11T01:12:58;15.57;;;4.05;;
69822;SDS011;57119;52.516;13.508;2024-01-11T01:15:23;17.53;;;4.43;;
69822;SDS011;57119;52.516;13.508;2024-01-11T01:17:48;12.57;;;4.13;;
69822;SDS011;57119;52.516;13.508;2024-01-11T01:20:14;13.93;;;3.93;;
69822;SDS011;57119;52.516;13.508;2024-01-11T01:22:39;15.43;;;4.17;;
69822;SDS011;57119;52.516;13.508;2024-01-11T01:25:05;12.88;;;4.07;;
69822;SDS011;57119;52.516;13.508;2024-01-11T01:27:31;13.43;;;4.13;;
69822;SDS011;57119;52.516;13.508;2024-01-11T01:29:56;15.83;;;4.57;;
69822;SDS011;57119;52.516;13.508;2024-01-11T01:32:21;14.97;;;4.60;;
69822;SDS011;57119;52.516;13.508;2024-01-11T01:34:47;18.75;;;5.05;;
69822;SDS011;57119;52.516;13.508;2024-01-11T01:37:12;17.02;;;4.65;;
69822;SDS011;57119;52.516;13.508;2024-01-11T01:39:38;18.83;;;5.00;;
69822;SDS011;57119;52.516;13.508;2024-01-11T01:42:03;14.57;;;4.35;;
69822;SDS011;57119;52.516;13.508;2024-01-11T01:44:29;15.50;;;4.57;;
69822;SDS011;57119;52.516;13.508;2024-01-11T01:46:55;15.40;;;4.65;;
69822;SDS011;57119;52.516;13.508;2024-01-11T01:49:20;15.68;;;3.92;;
69822;SDS011;57119;52.516;13.508;2024-01-11T01:51:47;17.02;;;5.13;;
69822;SDS011;57119;52.516;13.508;2024-01-11T01:54:13;13.53;;;4.10;;
69822;SDS011;57119;52.516;13.508;2024-01-11T01:56:39;18.77;;;4.85;;
69822;SDS011;57119;52.516;13.508;2024-01-11T01:59:04;13.53;;;4.10;;
69822;SDS011;57119;52.516;13.508;2024-01-11T02:01:30;12.93;;;4.25;;
69822;SDS011;57119;52.516;13.508;2024-01-11T02:03:56;13.80;;;4.37;;
69822;SDS011;57119;52.516;13.508;2024-01-11T02:06:23;15.40;;;4.32;;
69822;SDS011;57119;52.516;13.508;2024-01-11T02:08:51;16.17;;;4.35;;
69822;SDS011;57119;52.516;13.508;2024-01-11T02:11:20;18.63;;;5.55;;
69822;SDS011;57119;52.516;13.508;2024-01-11T02:13:48;17.33;;;5.07;;
69822;SDS011;57119;52.516;13.508;2024-01-11T02:16:14;14.70;;;5.00;;
69822;SDS011;57119;52.516;13.508;2024-01-11T02:18:40;14.13;;;4.53;;
69822;SDS011;57119;52.516;13.508;2024-01-11T02:21:06;14.10;;;3.92;;
69822;SDS011;57119;52.516;13.508;2024-01-11T02:23:36;13.10;;;4.03;;
69822;SDS011;57119;52.516;13.508;2024-01-11T02:26:10;13.90;;;4.53;;
69822;SDS011;57119;52.516;13.508;2024-01-11T02:28:36;15.50;;;3.90;;
69822;SDS011;57119;52.516;13.508;2024-01-11T02:31:01;13.13;;;4.07;;
69822;SDS011;57119;52.516;13.508;2024-01-11T02:33:26;14.23;;;4.23;;
69822;SDS011;57119;52.516;13.508;2024-01-11T02:35:52;15.90;;;4.80;;
69822;SDS011;57119;52.516;13.508;2024-01-11T02:38:17;15.93;;;4.27;;
69822;SDS011;57119;52.516;13.508;2024-01-11T02:40:43;14.52;;;4.32;;
69822;SDS011;57119;52.516;13.508;2024-01-11T02:43:09;17.47;;;4.47;;
69822;SDS011;57119;52.516;13.508;2024-01-11T02:45:35;14.52;;;4.00;;
69822;SDS011;57119;52.516;13.508;2024-01-11T02:48:01;12.10;;;3.88;;
69822;SDS011;57119;52.516;13.508;2024-01-11T02:50:26;13.47;;;3.63;;
69822;SDS011;57119;52.516;13.508;2024-01-11T02:52:52;14.80;;;4.17;;
69822;SDS011;57119;52.516;13.508;2024-01-11T02:55:17;14.23;;;3.50;;
69822;SDS011;57119;52.516;13.508;2024-01-11T02:57:42;13.57;;;3.70;;
69822;SDS011;57119;52.516;13.508;2024-01-11T03:00:08;15.63;;;4.50;;
69822;SDS011;57119;52.516;13.508;2024-01-11T03:02:33;14.97;;;4.33;;
69822;SDS011;57119;52.516;13.508;2024-01-11T03:04:59;13.97;;;3.97;;
69822;SDS011;57119;52.516;13.508;2024-01-11T03:07:24;16.13;;;4.40;;
69822;SDS011;57119;52.516;13.508;2024-01-11T03:09:49;16.83;;;4.33;;
69822;SDS011;57119;52.516;13.508;2024-01-11T03:12:15;14.65;;;5.57;;
69822;SDS011;57119;52.516;13.508;2024-01-11T03:14:40;17.13;;;4.43;;
69822;SDS011;57119;52.516;13.508;2024-01-11T03:17:06;18.97;;;4.43;;
69822;SDS011;57119;52.516;13.508;2024-01-11T03:19:31;13.83;;;3.90;;
69822;SDS011;57119;52.516;13.508;2024-01-11T03:21:56;16.93;;;5.03;;
69822;SDS011;57119;52.516;13.508;2024-01-11T03:24:22;20.08;;;5.00;;
69822;SDS011;57119;52.516;13.508;2024-01-11T03:26:48;15.80;;;4.83;;
69822;SDS011;57119;52.516;13.508;2024-01-11T03:29:13;16.10;;;4.68;;
69822;SDS011;57119;52.516;13.508;2024-01-11T03:31:39;19.17;;;4.70;;
69822;SDS011;57119;52.516;13.508;2024-01-11T03:34:07;16.08;;;4.38;;
69822;SDS011;57119;52.516;13.508;2024-01-11T03:36:33;16.67;;;4.77;;
69822;SDS011;57119;52.516;13.508;2024-01-11T03:38:58;17.65;;;4.65;;
69822;SDS011;57119;52.516;13.508;2024-01-11T03:41:23;18.23;;;5.67;;
69822;SDS011;57119;52.516;13.508;2024-01-11T03:43:49;15.93;;;5.23;;
69822;SDS011;57119;52.516;13.508;2024-01-11T03:46:15;20.17;;;5.55;;
69822;SDS011;57119;52.516;13.508;2024-01-11T03:48:41;15.47;;;4.63;;
69822;SDS011;57119;52.516;13.508;2024-01-11T03:51:06;17.40;;;5.73;;
69822;SDS011;57119;52.516;13.508;2024-01-11T03:53:35;19.08;;;5.75;;
69822;SDS011;57119;52.516;13.508;2024-01-11T03:56:02;19.10;;;5.83;;
69822;SDS011;57119;52.516;13.508;2024-01-11T03:58:27;23.25;;;5.60;;
69822;SDS011;57119;52.516;13.508;2024-01-11T04:00:53;19.20;;;6.13;;
69822;SDS011;57119;52.516;13.508;2024-01-11T04:03:19;20.55;;;5.47;;
69822;SDS011;57119;52.516;13.508;2024-01-11T04:05:44;23.37;;;5.77;;
69822;SDS011;57119;52.516;13.508;2024-01-11T04:08:10;17.30;;;4.82;;
69822;SDS011;57119;52.516;13.508;2024-01-11T04:10:35;16.87;;;4.90;;
69822;SDS011;57119;52.516;13.508;2024-01-11T04:13:01;18.80;;;5.07;;
69822;SDS011;57119;52.516;13.508;2024-01-11T04:15:26;18.00;;;5.40;;
69822;SDS011;57119;52.516;13.508;2024-01-11T04:17:52;18.97;;;4.80;;
69822;SDS011;57119;52.516;13.508;2024-01-11T04:20:17;13.10;;;4.20;;
69822;SDS011;57119;52.516;13.508;2024-01-11T04:22:43;20.37;;;5.37;;
69822;SDS011;57119;52.516;13.508;2024-01-11T04:25:08;14.87;;;4.37;;
69822;SDS011;57119;52.516;13.508;2024-01-11T04:27:33;16.80;;;4.57;;
69822;SDS011;57119;52.516;13.508;2024-01-11T04:29:59;21.03;;;5.57;;
69822;SDS011;57119;52.516;13.508;2024-01-11T04:32:24;14.47;;;4.27;;
69822;SDS011;57119;52.516;13.508;2024-01-11T04:34:50;21.43;;;4.83;;
69822;SDS011;57119;52.516;13.508;2024-01-11T04:37:15;21.23;;;4.55;;
69822;SDS011;57119;52.516;13.508;2024-01-11T04:39:41;20.33;;;5.05;;
69822;SDS011;57119;52.516;13.508;2024-01-11T04:42:12;16.83;;;4.90;;
69822;SDS011;57119;52.516;13.508;2024-01-11T04:44:38;17.83;;;4.83;;
69822;SDS011;57119;52.516;13.508;2024-01-11T04:47:03;16.13;;;4.27;;
69822;SDS011;57119;52.516;13.508;2024-01-11T04:49:29;23.03;;;5.33;;
69822;SDS011;57119;52.516;13.508;2024-01-11T04:51:54;19.27;;;4.15;;
69822;SDS011;57119;52.516;13.508;2024-01-11T04:54:19;20.05;;;5.22;;
69822;SDS011;57119;52.516;13.508;2024-01-11T04:56:45;16.20;;;4.57;;
69822;SDS011;57119;52.516;13.508;2024-01-11T04:59:10;16.60;;;4.97;;
69822;SDS011;57119;52.516;13.508;2024-01-11T05:01:36;15.30;;;4.50;;
69822;SDS011;57119;52.516;13.508;2024-01-11T05:04:01;24.23;;;5.60;;
69822;SDS011;57119;52.516;13.508;2024-01-11T05:06:26;18.77;;;4.00;;
69822;SDS011;57119;52.516;13.508;2024-01-11T05:08:52;23.35;;;5.22;;
69822;SDS011;57119;52.516;13.508;2024-01-11T05:11:18;24.23;;;5.30;;
69822;SDS011;57119;52.516;13.508;2024-01-11T05:13:44;21.92;;;5.25;;
69822;SDS011;57119;52.516;13.508;2024-01-11T05:18:54;24.63;;;4.97;;
69822;SDS011;57119;52.516;13.508;2024-01-11T05:21:20;20.80;;;4.22;;
69822;SDS011;57119;52.516;13.508;2024-01-11T05:23:46;24.45;;;6.35;;
69822;SDS011;57119;52.516;13.508;2024-01-11T05:26:13;24.10;;;6.00;;
69822;SDS011;57119;52.516;13.508;2024-01-11T05:28:39;25.25;;;5.63;;
69822;SDS011;57119;52.516;13.508;2024-01-11T05:31:09;25.73;;;7.13;;
69822;SDS011;57119;52.516;13.508;2024-01-11T05:33:38;21.85;;;6.13;;
69822;SDS011;57119;52.516;13.508;2024-01-11T05:36:04;29.60;;;7.05;;
69822;SDS011;57119;52.516;13.508;2024-01-11T05:38:30;24.55;;;5.80;;
69822;SDS011;57119;52.516;13.508;2024-01-11T05:40:56;21.47;;;5.93;;
69822;SDS011;57119;52.516;13.508;2024-01-11T05:43:22;19.77;;;5.35;;
69822;SDS011;57119;52.516;13.508;2024-01-11T05:45:48;23.40;;;6.45;;
69822;SDS011;57119;52.516;13.508;2024-01-11T05:48:15;19.70;;;5.10;;
69822;SDS011;57119;52.516;13.508;2024-01-11T05:50:41;23.17;;;6.53;;
69822;SDS011;57119;52.516;13.508;2024-01-11T05:53:06;24.20;;;5.68;;
69822;SDS011;57119;52.516;13.508;2024-01-11T05:55:32;29.03;;;6.00;;
69822;SDS011;57119;52.516;13.508;2024-01-11T05:57:57;30.50;;;7.13;;
69822;SDS011;57119;52.516;13.508;2024-01-11T06:00:23;27.90;;;6.80;;
69822;SDS011;57119;52.516;13.508;2024-01-11T06:02:48;32.17;;;7.18;;
69822;SDS011;57119;52.516;13.508;2024-01-11T06:05:14;24.00;;;6.18;;
69822;SDS011;57119;52.516;13.508;2024-01-11T06:07:40;25.93;;;6.67;;
69822;SDS011;57119;52.516;13.508;2024-01-11T06:10:06;19.10;;;6.22;;
69822;SDS011;57119;52.516;13.508;2024-01-11T06:12:33;26.92;;;7.15;;
69822;SDS011;57119;52.516;13.508;2024-01-11T06:15:00;25.67;;;6.73;;
69822;SDS011;57119;52.516;13.508;2024-01-11T06:17:26;29.42;;;8.00;;
69822;SDS011;57119;52.516;13.508;2024-01-11T06:19:55;26.27;;;7.03;;
69822;SDS011;57119;52.516;13.508;2024-01-11T06:22:20;27.77;;;7.03;;
69822;SDS011;57119;52.516;13.508;2024-01-11T06:24:46;28.80;;;6.82;;
69822;SDS011;57119;52.516;13.508;2024-01-11T06:27:11;29.67;;;8.60;;
69822;SDS011;57119;52.516;13.508;2024-01-11T06:29:36;33.00;;;7.73;;
69822;SDS011;57119;52.516;13.508;2024-01-11T06:32:02;26.93;;;8.47;;
69822;SDS011;57119;52.516;13.508;2024-01-11T06:34:27;28.77;;;7.93;;
69822;SDS011;57119;52.516;13.508;2024-01-11T06:36:53;28.95;;;7.75;;
69822;SDS011;57119;52.516;13.508;2024-01-11T06:39:19;32.13;;;7.10;;
69822;SDS011;57119;52.516;13.508;2024-01-11T06:41:45;38.33;;;10.10;;
69822;SDS011;57119;52.516;13.508;2024-01-11T06:44:10;46.50;;;11.70;;
69822;SDS011;57119;52.516;13.508;2024-01-11T06:46:35;44.13;;;10.37;;
69822;SDS011;57119;52.516;13.508;2024-01-11T06:49:04;39.03;;;8.13;;
69822;SDS011;57119;52.516;13.508;2024-01-11T06:51:29;29.23;;;6.53;;
69822;SDS011;57119;52.516;13.508;2024-01-11T06:53:55;24.03;;;7.50;;
69822;SDS011;57119;52.516;13.508;2024-01-11T06:56:20;41.10;;;8.70;;
69822;SDS011;57119;52.516;13.508;2024-01-11T06:58:49;25.50;;;7.13;;
69822;SDS011;57119;52.516;13.508;2024-01-11T07:01:17;31.23;;;7.95;;
69822;SDS011;57119;52.516;13.508;2024-01-11T07:03:43;35.80;;;8.30;;
69822;SDS011;57119;52.516;13.508;2024-01-11T07:06:09;27.45;;;7.00;;
69822;SDS011;57119;52.516;13.508;2024-01-11T07:08:35;28.27;;;7.47;;
69822;SDS011;57119;52.516;13.508;2024-01-11T07:11:01;30.92;;;8.57;;
69822;SDS011;57119;52.516;13.508;2024-01-11T07:13:32;33.58;;;8.00;;
69822;SDS011;57119;52.516;13.508;2024-01-11T07:15:57;33.77;;;8.63;;
69822;SDS011;57119;52.516;13.508;2024-01-11T07:18:23;35.25;;;7.75;;
69822;SDS011;57119;52.516;13.508;2024-01-11T07:20:53;32.65;;;9.00;;
69822;SDS011;57119;52.516;13.508;2024-01-11T07:23:20;29.85;;;7.60;;
69822;SDS011;57119;52.516;13.508;2024-01-11T07:25:46;28.67;;;8.27;;
69822;SDS011;57119;52.516;13.508;2024-01-11T07:28:11;31.83;;;8.60;;
69822;SDS011;57119;52.516;13.508;2024-01-11T07:30:37;32.20;;;9.07;;
69822;SDS011;57119;52.516;13.508;2024-01-11T07:33:02;35.10;;;8.38;;
69822;SDS011;57119;52.516;13.508;2024-01-11T07:35:29;32.17;;;7.93;;
69822;SDS011;57119;52.516;13.508;2024-01-11T07:37:55;31.80;;;9.57;;
69822;SDS011;57119;52.516;13.508;2024-01-11T07:40:21;28.10;;;7.77;;
69822;SDS011;57119;52.516;13.508;2024-01-11T07:42:47;30.83;;;9.68;;
69822;SDS011;57119;52.516;13.508;2024-01-11T07:45:13;30.37;;;7.77;;
69822;SDS011;57119;52.516;13.508;2024-01-11T07:47:39;27.33;;;7.93;;
69822;SDS011;57119;52.516;13.508;2024-01-11T07:50:05;24.80;;;8.02;;
69822;SDS011;57119;52.516;13.508;2024-01-11T07:52:37;31.73;;;9.00;;
69822;SDS011;57119;52.516;13.508;2024-01-11T07:55:04;36.55;;;8.95;;
69822;SDS011;57119;52.516;13.508;2024-01-11T07:57:33;31.67;;;8.32;;
69822;SDS011;57119;52.516;13.508;2024-01-11T08:00:01;31.15;;;8.00;;
69822;SDS011;57119;52.516;13.508;2024-01-11T08:02:28;33.75;;;9.50;;
69822;SDS011;57119;52.516;13.508;2024-01-11T08:04:53;30.57;;;7.83;;
69822;SDS011;57119;52.516;13.508;2024-01-11T08:07:19;30.43;;;8.07;;
69822;SDS011;57119;52.516;13.508;2024-01-11T08:09:44;36.57;;;9.70;;
69822;SDS011;57119;52.516;13.508;2024-01-11T08:12:16;31.38;;;9.23;;
69822;SDS011;57119;52.516;13.508;2024-01-11T08:14:42;38.07;;;8.47;;
69822;SDS011;57119;52.516;13.508;2024-01-11T08:17:08;28.33;;;7.65;;
69822;SDS011;57119;52.516;13.508;2024-01-11T08:19:33;35.13;;;9.13;;
69822;SDS011;57119;52.516;13.508;2024-01-11T08:21:59;40.10;;;9.98;;
69822;SDS011;57119;52.516;13.508;2024-01-11T08:24:25;34.17;;;9.10;;
69822;SDS011;57119;52.516;13.508;2024-01-11T08:26:51;35.10;;;8.13;;
69822;SDS011;57119;52.516;13.508;2024-01-11T08:29:17;37.35;;;9.38;;
69822;SDS011;57119;52.516;13.508;2024-01-11T08:31:44;34.45;;;9.48;;
69822;SDS011;57119;52.516;13.508;2024-01-11T08:34:12;37.42;;;9.98;;
69822;SDS011;57119;52.516;13.508;2024-01-11T08:36:38;28.67;;;8.77;;
69822;SDS011;57119;52.516;13.508;2024-01-11T08:39:06;27.50;;;7.30;;
69822;SDS011;57119;52.516;13.508;2024-01-11T08:41:33;28.10;;;8.75;;
69822;SDS011;57119;52.516;13.508;2024-01-11T08:44:02;30.20;;;8.48;;
69822;SDS011;57119;52.516;13.508;2024-01-11T08:46:28;30.75;;;8.48;;
69822;SDS011;57119;52.516;13.508;2024-01-11T08:48:55;31.73;;;8.80;;
69822;SDS011;57119;52.516;13.508;2024-01-11T08:51:21;32.93;;;8.60;;
69822;SDS011;57119;52.516;13.508;2024-01-11T08:53:47;23.98;;;7.80;;
69822;SDS011;57119;52.516;13.508;2024-01-11T08:56:16;42.28;;;8.40;;
69822;SDS011;57119;52.516;13.508;2024-01-11T08:58:42;31.10;;;8.17;;
69822;SDS011;57119;52.516;13.508;2024-01-11T09:01:08;34.25;;;8.30;;
69822;SDS011;57119;52.516;13.508;2024-01-11T09:03:34;34.00;;;7.77;;
69822;SDS011;57119;52.516;13.508;2024-01-11T09:06:00;29.00;;;7.28;;
69822;SDS011;57119;52.516;13.508;2024-01-11T09:08:26;32.77;;;8.27;;
69822;SDS011;57119;52.516;13.508;2024-01-11T09:10:51;29.07;;;8.37;;
69822;SDS011;57119;52.516;13.508;2024-01-11T09:13:17;31.88;;;8.25;;
69822;SDS011;57119;52.516;13.508;2024-01-11T09:15:43;32.22;;;9.57;;
69822;SDS011;57119;52.516;13.508;2024-01-11T09:18:08;33.58;;;9.50;;
69822;SDS011;57119;52.516;13.508;2024-01-11T09:20:34;29.67;;;7.33;;
69822;SDS011;57119;52.516;13.508;2024-01-11T09:23:00;27.48;;;8.73;;
69822;SDS011;57119;52.516;13.508;2024-01-11T09:25:28;28.55;;;9.05;;
69822;SDS011;57119;52.516;13.508;2024-01-11T09:27:56;26.77;;;8.73;;
69822;SDS011;57119;52.516;13.508;2024-01-11T09:30:22;28.73;;;9.02;;
69822;SDS011;57119;52.516;13.508;2024-01-11T09:32:47;32.27;;;8.20;;
69822;SDS011;57119;52.516;13.508;2024-01-11T09:35:13;29.73;;;9.17;;
69822;SDS011;57119;52.516;13.508;2024-01-11T09:37:39;35.30;;;10.30;;
69822;SDS011;57119;52.516;13.508;2024-01-11T09:40:05;27.80;;;8.20;;
69822;SDS011;57119;52.516;13.508;2024-01-11T09:42:35;36.85;;;11.70;;
69822;SDS011;57119;52.516;13.508;2024-01-11T09:45:07;53.60;;;13.68;;
69822;SDS011;57119;52.516;13.508;2024-01-11T09:47:35;39.75;;;12.20;;
69822;SDS011;57119;52.516;13.508;2024-01-11T09:50:02;68.00;;;18.13;;
69822;SDS011;57119;52.516;13.508;2024-01-11T09:52:28;36.10;;;11.02;;
69822;SDS011;57119;52.516;13.508;2024-01-11T09:54:56;31.20;;;8.80;;
69822;SDS011;57119;52.516;13.508;2024-01-11T09:57:24;29.00;;;7.82;;
69822;SDS011;57119;52.516;13.508;2024-01-11T09:59:52;31.10;;;8.53;;
69822;SDS011;57119;52.516;13.508;2024-01-11T10:02:20;31.10;;;8.93;;
69822;SDS011;57119;52.516;13.508;2024-01-11T10:04:48;38.08;;;9.77;;
69822;SDS011;57119;52.516;13.508;2024-01-11T10:07:13;29.60;;;8.43;;
69822;SDS011;57119;52.516;13.508;2024-01-11T10:09:43;30.58;;;8.93;;
69822;SDS011;57119;52.516;13.508;2024-01-11T10:12:09;29.88;;;9.82;;
69822;SDS011;57119;52.516;13.508;2024-01-11T10:14:35;28.85;;;8.05;;
69822;SDS011;57119;52.516;13.508;2024-01-11T10:17:00;29.00;;;8.93;;
69822;SDS011;57119;52.516;13.508;2024-01-11T10:19:26;32.13;;;9.10;;
69822;SDS011;57119;52.516;13.508;2024-01-11T10:21:52;32.45;;;9.27;;
69822;SDS011;57119;52.516;13.508;2024-01-11T10:24:18;31.27;;;9.63;;
69822;SDS011;57119;52.516;13.508;2024-01-11T10:26:45;28.80;;;9.25;;
69822;SDS011;57119;52.516;13.508;2024-01-11T10:29:11;30.20;;;9.00;;
69822;SDS011;57119;52.516;13.508;2024-01-11T10:31:38;32.60;;;9.93;;
69822;SDS011;57119;52.516;13.508;2024-01-11T10:34:04;38.38;;;9.65;;
69822;SDS011;57119;52.516;13.508;2024-01-11T10:36:31;31.07;;;9.40;;
69822;SDS011;57119;52.516;13.508;2024-01-11T10:38:57;29.17;;;8.65;;
69822;SDS011;57119;52.516;13.508;2024-01-11T10:41:24;31.67;;;8.93;;
69822;SDS011;57119;52.516;13.508;2024-01-11T10:43:51;25.20;;;8.02;;
69822;SDS011;57119;52.516;13.508;2024-01-11T10:46:19;29.15;;;9.63;;
69822;SDS011;57119;52.516;13.508;2024-01-11T10:48:51;39.13;;;10.15;;
69822;SDS011;57119;52.516;13.508;2024-01-11T10:51:20;34.03;;;10.38;;
69822;SDS011;57119;52.516;13.508;2024-01-11T10:53:49;40.28;;;11.68;;
69822;SDS011;57119;52.516;13.508;2024-01-11T10:56:16;35.25;;;10.27;;
69822;SDS011;57119;52.516;13.508;2024-01-11T10:58:42;36.63;;;10.50;;
69822;SDS011;57119;52.516;13.508;2024-01-11T11:01:10;28.55;;;9.90;;
69822;SDS011;57119;52.516;13.508;2024-01-11T11:03:37;28.30;;;9.00;;
69822;SDS011;57119;52.516;13.508;2024-01-11T11:06:07;32.42;;;9.95;;
69822;SDS011;57119;52.516;13.508;2024-01-11T11:08:33;27.88;;;9.55;;
69822;SDS011;57119;52.516;13.508;2024-01-11T11:10:59;26.65;;;9.05;;
69822;SDS011;57119;52.516;13.508;2024-01-11T11:13:26;26.48;;;8.60;;
69822;SDS011;57119;52.516;13.508;2024-01-11T11:15:52;25.30;;;9.10;;
69822;SDS011;57119;52.516;13.508;2024-01-11T11:18:18;29.75;;;9.73;;
69822;SDS011;57119;52.516;13.508;2024-01-11T11:20:45;25.67;;;8.38;;
69822;SDS011;57119;52.516;13.508;2024-01-11T11:23:13;25.50;;;8.52;;
69822;SDS011;57119;52.516;13.508;2024-01-11T11:25:42;25.23;;;8.40;;
69822;SDS011;57119;52.516;13.508;2024-01-11T11:28:11;25.63;;;9.00;;
69822;SDS011;57119;52.516;13.508;2024-01-11T11:30:38;24.10;;;8.38;;
69822;SDS011;57119;52.516;13.508;2024-01-11T11:35:45;31.45;;;9.52;;
69822;SDS011;57119;52.516;13.508;2024-01-11T11:38:18;28.50;;;9.35;;
69822;SDS011;57119;52.516;13.508;2024-01-11T11:40:46;22.00;;;8.33;;
69822;SDS011;57119;52.516;13.508;2024-01-11T11:43:13;26.83;;;9.10;;
69822;SDS011;57119;52.516;13.508;2024-01-11T11:45:41;27.23;;;9.25;;
69822;SDS011;57119;52.516;13.508;2024-01-11T11:53:33;25.65;;;8.48;;
69822;SDS011;57119;52.516;13.508;2024-01-11T11:55:59;24.30;;;9.05;;
69822;SDS011;57119;52.516;13.508;2024-01-11T11:58:25;26.20;;;9.23;;
69822;SDS011;57119;52.516;13.508;2024-01-11T12:00:52;25.43;;;9.13;;
69822;SDS011;57119;52.516;13.508;2024-01-11T12:03:18;30.92;;;11.70;;
69822;SDS011;57119;52.516;13.508;2024-01-11T12:05:44;27.50;;;9.23;;
69822;SDS011;57119;52.516;13.508;2024-01-11T12:08:09;27.33;;;8.77;;
69822;SDS011;57119;52.516;13.508;2024-01-11T12:10:35;26.30;;;8.53;;
69822;SDS011;57119;52.516;13.508;2024-01-11T12:13:01;23.70;;;8.10;;
69822;SDS011;57119;52.516;13.508;2024-01-11T12:15:27;25.40;;;8.50;;
69822;SDS011;57119;52.516;13.508;2024-01-11T12:18:02;24.70;;;8.73;;
69822;SDS011;57119;52.516;13.508;2024-01-11T12:20:28;30.08;;;10.40;;
69822;SDS011;57119;52.516;13.508;2024-01-11T12:22:54;24.42;;;7.88;;
69822;SDS011;57119;52.516;13.508;2024-01-11T12:25:19;25.43;;;8.93;;
69822;SDS011;57119;52.516;13.508;2024-01-11T12:27:46;27.70;;;8.50;;
69822;SDS011;57119;52.516;13.508;2024-01-11T12:30:12;30.25;;;9.73;;
69822;SDS011;57119;52.516;13.508;2024-01-11T12:32:41;28.60;;;9.15;;
69822;SDS011;57119;52.516;13.508;2024-01-11T12:35:08;27.25;;;9.07;;
69822;SDS011;57119;52.516;13.508;2024-01-11T12:37:33;28.40;;;9.07;;
69822;SDS011;57119;52.516;13.508;2024-01-11T12:39:59;29.38;;;10.27;;
69822;SDS011;57119;52.516;13.508;2024-01-11T12:42:27;28.10;;;8.53;;
69822;SDS011;57119;52.516;13.508;2024-01-11T12:44:53;31.27;;;9.55;;
69822;SDS011;57119;52.516;13.508;2024-01-11T12:47:18;28.87;;;9.43;;
69822;SDS011;57119;52.516;13.508;2024-01-11T12:49:49;23.02;;;8.35;;
69822;SDS011;57119;52.516;13.508;2024-01-11T12:52:17;27.57;;;8.90;;
69822;SDS011;57119;52.516;13.508;2024-01-11T12:54:43;25.65;;;8.82;;
69822;SDS011;57119;52.516;13.508;2024-01-11T12:57:20;26.92;;;8.55;;
69822;SDS011;57119;52.516;13.508;2024-01-11T12:59:46;28.73;;;10.48;;
69822;SDS011;57119;52.516;13.508;2024-01-11T13:02:12;28.02;;;9.32;;
69822;SDS011;57119;52.516;13.508;2024-01-11T13:04:40;27.23;;;8.93;;
69822;SDS011;57119;52.516;13.508;2024-01-11T13:07:09;29.42;;;9.23;;
69822;SDS011;57119;52.516;13.508;2024-01-11T13:09:36;27.40;;;8.45;;
69822;SDS011;57119;52.516;13.508;2024-01-11T13:12:01;25.90;;;8.83;;
69822;SDS011;57119;52.516;13.508;2024-01-11T13:14:28;26.13;;;7.82;;
69822;SDS011;57119;52.516;13.508;2024-01-11T13:16:53;24.83;;;8.60;;
69822;SDS011;57119;52.516;13.508;2024-01-11T13:19:19;28.47;;;8.50;;
69822;SDS011;57119;52.516;13.508;2024-01-11T13:21:44;23.07;;;8.23;;
69822;SDS011;57119;52.516;13.508;2024-01-11T13:24:10;18.70;;;7.17;;
69822;SDS011;57119;52.516;13.508;2024-01-11T13:26:37;23.15;;;6.80;;
69822;SDS011;57119;52.516;13.508;2024-01-11T13:29:02;19.43;;;6.23;;
69822;SDS011;57119;52.516;13.508;2024-01-11T13:31:28;21.40;;;6.60;;
69822;SDS011;57119;52.516;13.508;2024-01-11T13:33:53;19.55;;;6.38;;
69822;SDS011;57119;52.516;13.508;2024-01-11T13:36:21;19.98;;;6.55;;
69822;SDS011;57119;52.516;13.508;2024-01-11T13:38:47;21.30;;;7.23;;
69822;SDS011;57119;52.516;13.508;2024-01-11T13:41:14;20.42;;;6.57;;
69822;SDS011;57119;52.516;13.508;2024-01-11T13:43:39;22.30;;;6.85;;
69822;SDS011;57119;52.516;13.508;2024-01-11T13:46:05;22.67;;;7.43;;
69822;SDS011;57119;52.516;13.508;2024-01-11T13:48:33;21.77;;;6.53;;
69822;SDS011;57119;52.516;13.508;2024-01-11T13:50:59;19.77;;;6.93;;
69822;SDS011;57119;52.516;13.508;2024-01-11T13:53:25;22.70;;;8.07;;
69822;SDS011;57119;52.516;13.508;2024-01-11T13:55:50;23.02;;;7.72;;
69822;SDS011;57119;52.516;13.508;2024-01-11T13:58:17;23.98;;;8.27;;
69822;SDS011;57119;52.516;13.508;2024-01-11T14:00:43;22.67;;;6.73;;
69822;SDS011;57119;52.516;13.508;2024-01-11T14:03:09;20.20;;;6.47;;
69822;SDS011;57119;52.516;13.508;2024-01-11T14:05:35;21.77;;;7.15;;
69822;SDS011;57119;52.516;13.508;2024-01-11T14:08:02;20.13;;;7.18;;
69822;SDS011;57119;52.516;13.508;2024-01-11T14:10:30;22.30;;;8.00;;
69822;SDS011;57119;52.516;13.508;2024-01-11T14:12:58;33.43;;;11.07;;
69822;SDS011;57119;52.516;13.508;2024-01-11T14:15:24;31.23;;;10.13;;
69822;SDS011;57119;52.516;13.508;2024-01-11T14:17:50;142.97;;;34.87;;
69822;SDS011;57119;52.516;13.508;2024-01-11T14:20:16;49.13;;;10.88;;
69822;SDS011;57119;52.516;13.508;2024-01-11T14:22:42;61.85;;;17.85;;
69822;SDS011;57119;52.516;13.508;2024-01-11T14:25:14;36.20;;;8.68;;